Weather at Minneapolis–Saint Paul International Airport / Wold–Chamberlain Field

Public forecast

Using degrees Fahrenheit for public forecast. Weather courtesy of forecast.io.

Current aviation weather report (METAR) for Minneapolis–Saint Paul International Airport / Wold–Chamberlain Field

Retrieved 2021/07/28 13:03 UTC (55 seconds ago):

KMSP 281303Z 28013G20KT 10SM VCTS -RA FEW018 BKN120CB OVC140 23/21 A3010 RMK AO2 LTG DSNT ALQDS TSE1257 VCTS SW-W MOV SE P0000 T02330211

Aviation forecast (TAF) for Minneapolis–Saint Paul International Airport / Wold–Chamberlain Field

Retrieved 2021/07/28 12:28 UTC (36 minutes ago):

TAF KMSP 281125Z 2812/2918 14007KT P6SM BKN250 FM281230 15007KT 6SM -SHRA BKN060 OVC120 TEMPO 2813/2816 3SM TSRA BR BKN030CB FM281600 18013G20KT P6SM BKN150 FM282000 21013G20KT P6SM SCT150 PROB30 2900/2903 5SM -TSRA BKN050CB FM290300 34010KT P6SM FEW200